createdAt,value
2017-12-03T00:01:07.006Z,17.90
2017-12-03T00:10:37.335Z,16.90
2017-12-03T00:16:25.505Z,17.70
2017-12-03T00:18:53.554Z,17.70
2017-12-03T00:21:21.426Z,18.00
2017-12-03T00:30:36.964Z,17.40
2017-12-03T00:33:05.716Z,17.60
2017-12-03T00:36:18.856Z,17.50
2017-12-03T00:45:42.182Z,17.20
2017-12-03T00:51:36.304Z,17.20
2017-12-03T01:08:09.136Z,16.70
2017-12-03T01:10:37.071Z,17.40
2017-12-03T01:13:35.957Z,17.50
2017-12-03T01:16:04.209Z,17.30
2017-12-03T01:18:34.007Z,17.30
2017-12-03T01:21:02.128Z,17.80
2017-12-03T01:23:45.629Z,17.50
2017-12-03T01:26:13.682Z,17.60
2017-12-03T01:28:41.650Z,17.70
2017-12-03T01:31:09.599Z,18.10
2017-12-03T01:33:37.520Z,17.90
2017-12-03T01:36:05.427Z,18.20
2017-12-03T01:39:01.706Z,17.90
2017-12-03T01:41:29.697Z,17.90
2017-12-03T02:01:26.508Z,16.70
2017-12-03T02:03:58.553Z,17.40
2017-12-03T04:09:28.690Z,16.80
2017-12-03T04:15:27.708Z,16.60
2017-12-03T04:17:55.794Z,16.60
2017-12-03T04:20:24.103Z,16.70
2017-12-03T04:29:57.138Z,16.50
2017-12-03T04:32:33.985Z,17.10
2017-12-03T04:35:02.131Z,17.30
2017-12-03T04:37:31.240Z,17.40
2017-12-03T04:40:00.053Z,17.40
2017-12-03T04:42:28.250Z,17.30
2017-12-03T04:45:00.458Z,17.50
2017-12-03T04:47:28.521Z,17.50
2017-12-03T04:49:57.621Z,17.60
2017-12-03T04:52:26.638Z,17.40
2017-12-03T04:55:13.358Z,17.60
2017-12-03T04:57:41.398Z,17.60
2017-12-03T05:00:10.906Z,17.60
2017-12-03T05:02:51.228Z,17.80
2017-12-03T05:05:19.445Z,17.80
2017-12-03T05:07:48.014Z,18.00
2017-12-03T05:10:18.112Z,18.00
2017-12-03T05:12:47.096Z,18.20
2017-12-03T05:15:15.162Z,18.10
2017-12-03T05:17:43.140Z,18.20
2017-12-03T05:20:11.776Z,18.30
2017-12-03T05:22:39.758Z,18.40
2017-12-03T05:25:07.781Z,18.40
2017-12-03T05:27:35.781Z,18.30
2017-12-03T05:30:04.421Z,18.50
2017-12-03T05:32:32.536Z,18.60
2017-12-03T05:35:00.542Z,18.60
2017-12-03T05:37:28.558Z,18.80
2017-12-03T05:39:56.833Z,18.80
2017-12-03T05:42:24.938Z,18.90
2017-12-03T05:44:52.972Z,18.90
2017-12-03T05:47:21.060Z,19.00
2017-12-03T05:49:49.072Z,19.00
2017-12-03T05:52:17.049Z,19.10
2017-12-03T05:54:44.961Z,19.20
2017-12-03T05:57:12.937Z,19.30
2017-12-03T05:59:40.922Z,19.30
2017-12-03T06:02:09.063Z,19.40
2017-12-03T06:04:37.105Z,19.40
2017-12-03T06:07:04.984Z,19.50
2017-12-03T06:09:33.075Z,19.30
2017-12-03T06:12:01.031Z,19.40
2017-12-03T06:14:29.023Z,19.60
2017-12-03T06:16:57.107Z,19.70
2017-12-03T06:19:25.153Z,19.70
2017-12-03T06:21:53.112Z,19.80
2017-12-03T06:24:21.068Z,19.90
2017-12-03T06:26:49.016Z,19.90
2017-12-03T06:29:16.961Z,19.70
2017-12-03T06:31:44.964Z,19.60
2017-12-03T06:34:12.908Z,19.90
2017-12-03T06:36:40.898Z,20.00
2017-12-03T06:39:08.835Z,20.00
2017-12-03T06:41:37.627Z,20.30
2017-12-03T06:44:05.574Z,20.20
2017-12-03T06:46:33.795Z,20.30
2017-12-03T06:49:01.737Z,20.40
2017-12-03T06:51:29.948Z,20.30
2017-12-03T06:53:57.930Z,20.30
2017-12-03T06:56:25.873Z,20.40
2017-12-03T06:58:54.602Z,20.50
2017-12-03T07:01:22.579Z,20.50
2017-12-03T07:03:50.535Z,20.60
2017-12-03T07:06:18.632Z,20.80
2017-12-03T07:08:46.622Z,20.80
2017-12-03T07:11:14.759Z,20.80
2017-12-03T07:13:42.749Z,20.90
2017-12-03T07:16:10.827Z,20.90
2017-12-03T07:18:38.724Z,20.90
2017-12-03T07:21:06.672Z,21.00
2017-12-03T07:23:34.583Z,20.80
2017-12-03T07:26:02.479Z,20.20
2017-12-03T07:28:30.434Z,20.40
2017-12-03T07:30:58.437Z,20.80
2017-12-03T07:33:26.362Z,21.00
2017-12-03T07:35:55.052Z,21.20
2017-12-03T07:38:23.817Z,21.00
2017-12-03T07:40:51.780Z,20.90
2017-12-03T07:43:19.838Z,20.90
2017-12-03T07:45:47.974Z,21.00
2017-12-03T08:12:23.405Z,20.00
2017-12-03T08:14:51.217Z,20.40
2017-12-03T08:17:19.187Z,21.00
2017-12-03T08:19:47.426Z,21.20
2017-12-03T08:22:15.341Z,21.20
2017-12-03T08:24:44.060Z,21.50
2017-12-03T08:27:13.006Z,21.50
2017-12-03T08:29:40.916Z,21.60
2017-12-03T08:32:08.857Z,21.80
2017-12-03T08:34:36.861Z,21.90
2017-12-03T08:37:06.493Z,21.50
2017-12-03T08:39:36.847Z,21.30
2017-12-03T08:42:07.129Z,20.80
2017-12-03T08:44:35.796Z,21.30
2017-12-03T08:47:05.298Z,21.60
2017-12-03T08:49:35.515Z,21.70
2017-12-03T08:52:04.988Z,20.60
2017-12-03T08:54:35.414Z,20.70
2017-12-03T08:57:05.909Z,20.70
2017-12-03T08:59:36.299Z,21.20
2017-12-03T09:02:06.790Z,21.40
2017-12-03T09:04:53.124Z,21.30
2017-12-03T09:07:27.402Z,20.90
2017-12-03T09:13:28.618Z,19.80
2017-12-03T09:16:03.073Z,20.30
2017-12-03T09:18:33.218Z,21.00
2017-12-03T09:21:03.354Z,20.00
2017-12-03T09:23:31.329Z,20.50
2017-12-03T09:25:59.996Z,20.30
2017-12-03T09:35:29.848Z,19.70
2017-12-03T09:48:31.808Z,18.30
2017-12-03T10:01:39.138Z,20.20
2017-12-03T10:04:07.321Z,20.30
2017-12-03T10:06:37.634Z,20.70
2017-12-03T10:12:37.375Z,20.90
2017-12-03T10:15:08.585Z,21.80
2017-12-03T10:17:36.532Z,21.70
2017-12-03T10:20:04.559Z,21.50
2017-12-03T10:22:32.467Z,20.60
2017-12-03T10:25:00.550Z,20.60
2017-12-03T10:27:28.455Z,20.00
2017-12-03T10:29:56.372Z,20.00
2017-12-03T10:32:27.705Z,19.80
2017-12-03T10:34:55.524Z,20.70
2017-12-03T10:40:33.907Z,19.70
2017-12-03T10:43:02.948Z,20.20
2017-12-03T10:45:33.428Z,20.50
2017-12-03T10:48:01.297Z,19.80
2017-12-03T10:50:29.071Z,20.30
2017-12-03T10:52:57.705Z,20.90
2017-12-03T10:55:25.660Z,20.90
2017-12-03T10:57:55.246Z,21.10
2017-12-03T11:00:26.008Z,21.00
2017-12-03T11:02:54.632Z,19.70
2017-12-03T11:05:22.664Z,19.60
2017-12-03T11:07:52.716Z,19.00
2017-12-03T11:10:20.639Z,18.40
2017-12-03T11:12:50.516Z,18.90
2017-12-03T11:15:18.339Z,18.90
2017-12-03T11:17:46.251Z,19.90
2017-12-03T11:20:14.047Z,19.60
2017-12-03T11:22:42.709Z,21.80
2017-12-03T11:25:10.532Z,21.70
2017-12-03T11:27:38.349Z,21.40
2017-12-03T11:30:06.155Z,22.10
2017-12-03T11:32:33.991Z,22.10
2017-12-03T11:35:02.767Z,21.90
2017-12-03T11:37:30.670Z,21.90
2017-12-03T11:39:58.560Z,22.20
2017-12-03T11:42:28.198Z,21.90
2017-12-03T11:44:56.008Z,22.10
2017-12-03T11:47:23.765Z,21.90
2017-12-03T11:49:51.671Z,22.30
2017-12-03T11:52:36.466Z,22.60
2017-12-03T11:55:04.272Z,22.40
2017-12-03T11:57:39.105Z,21.50
2017-12-03T12:00:06.956Z,21.60
2017-12-03T12:02:35.030Z,21.40
2017-12-03T12:05:02.821Z,21.50
2017-12-03T12:07:31.193Z,22.10
2017-12-03T12:10:01.918Z,22.00
2017-12-03T12:12:29.789Z,22.20
2017-12-03T12:15:00.914Z,22.30
2017-12-03T12:17:28.777Z,22.60
2017-12-03T12:19:56.542Z,22.90
2017-12-03T12:22:24.352Z,22.90
2017-12-03T12:24:56.138Z,22.60
2017-12-03T12:27:24.737Z,22.20
2017-12-03T12:29:52.558Z,22.10
2017-12-03T12:32:20.339Z,22.40
2017-12-03T12:34:48.209Z,22.10
2017-12-03T12:37:16.084Z,22.20
2017-12-03T12:39:43.897Z,22.50
2017-12-03T12:42:11.723Z,22.70
2017-12-03T12:44:39.673Z,22.70
2017-12-03T12:47:07.577Z,22.70
2017-12-03T12:49:35.448Z,22.80
2017-12-03T12:52:03.294Z,22.70
2017-12-03T12:54:31.155Z,22.80
2017-12-03T12:56:59.007Z,23.20
2017-12-03T12:59:26.914Z,23.00
2017-12-03T13:01:54.861Z,22.80
2017-12-03T13:04:22.623Z,22.10
2017-12-03T13:06:51.176Z,22.50
2017-12-03T13:09:21.225Z,22.50
2017-12-03T13:11:49.872Z,22.60
2017-12-03T13:14:17.755Z,22.60
2017-12-03T13:19:46.844Z,23.20
2017-12-03T13:22:14.724Z,23.10
2017-12-03T13:24:43.359Z,22.80
2017-12-03T13:27:13.022Z,22.70
2017-12-03T13:29:41.731Z,22.60
2017-12-03T13:32:09.551Z,22.50
2017-12-03T13:34:37.265Z,22.10
2017-12-03T13:37:05.033Z,21.30
2017-12-03T13:39:34.092Z,21.20
2017-12-03T13:42:02.589Z,22.40
2017-12-03T13:44:31.197Z,22.50
2017-12-03T13:46:58.994Z,22.50
2017-12-03T13:49:26.795Z,22.60
2017-12-03T13:51:55.377Z,22.50
2017-12-03T13:54:23.124Z,22.50
2017-12-03T13:56:50.896Z,22.60
2017-12-03T13:59:19.518Z,22.80
2017-12-03T14:01:47.367Z,22.80
2017-12-03T14:04:15.083Z,22.90
2017-12-03T14:06:42.896Z,23.10
2017-12-03T14:09:10.704Z,23.20
2017-12-03T14:11:38.536Z,22.80
2017-12-03T14:14:06.432Z,22.20
2017-12-03T14:16:34.206Z,21.70
2017-12-03T14:19:02.101Z,21.30
2017-12-03T14:21:30.816Z,22.60
2017-12-03T14:23:58.643Z,22.50
2017-12-03T14:26:26.422Z,22.80
2017-12-03T14:28:55.023Z,22.00
2017-12-03T14:31:22.854Z,22.00
2017-12-03T14:33:50.680Z,22.40
2017-12-03T14:36:18.433Z,22.00
2017-12-03T14:38:47.622Z,21.80
2017-12-03T14:41:15.971Z,21.50
2017-12-03T14:43:43.820Z,21.30
2017-12-03T14:46:11.750Z,20.90
2017-12-03T14:48:40.656Z,21.60
2017-12-03T14:51:08.492Z,22.30
2017-12-03T14:53:36.416Z,22.60
2017-12-03T14:56:04.947Z,22.80
2017-12-03T14:59:05.942Z,22.70
2017-12-03T15:01:34.531Z,23.00
2017-12-03T15:04:05.817Z,23.00
2017-12-03T15:06:38.962Z,22.90
2017-12-03T15:09:07.583Z,22.90
2017-12-03T15:11:35.488Z,22.90
2017-12-03T15:14:04.090Z,22.80
2017-12-03T15:16:32.130Z,22.70
2017-12-03T15:19:00.027Z,22.80
2017-12-03T15:21:27.862Z,22.90
2017-12-03T15:23:55.784Z,22.60
2017-12-03T15:26:23.728Z,22.60
2017-12-03T15:31:45.857Z,22.80
2017-12-03T15:34:13.680Z,22.80
2017-12-03T15:36:42.451Z,22.90
2017-12-03T15:39:11.082Z,23.10
2017-12-03T15:44:20.302Z,23.40
2017-12-03T15:46:50.363Z,23.30
2017-12-03T15:49:20.110Z,23.30
2017-12-03T15:51:48.100Z,23.10
2017-12-03T15:54:16.093Z,23.20
2017-12-03T15:56:44.873Z,23.10
2017-12-03T15:59:12.851Z,23.00
2017-12-03T16:01:41.458Z,22.70
2017-12-03T16:04:09.497Z,23.00
2017-12-03T16:06:37.372Z,23.10
2017-12-03T16:09:08.599Z,23.10
2017-12-03T16:15:05.378Z,23.20
2017-12-03T16:17:34.966Z,23.20
2017-12-03T16:20:09.655Z,23.20
2017-12-03T16:22:38.227Z,23.20
2017-12-03T16:25:07.476Z,23.10
2017-12-03T16:27:35.304Z,23.00
2017-12-03T16:30:04.032Z,23.10
2017-12-03T16:32:32.185Z,23.10
2017-12-03T16:35:00.093Z,23.10
2017-12-03T16:37:28.071Z,23.10
2017-12-03T16:39:56.329Z,23.20
2017-12-03T16:42:24.215Z,23.10
2017-12-03T16:44:58.179Z,23.10
2017-12-03T16:47:26.663Z,23.20
2017-12-03T16:49:54.691Z,23.30
2017-12-03T16:52:23.877Z,23.40
2017-12-03T16:54:52.035Z,23.30
2017-12-03T17:17:43.981Z,23.50
2017-12-03T17:20:12.979Z,23.50
2017-12-03T17:22:44.567Z,23.50
2017-12-03T17:25:18.465Z,23.40
2017-12-03T17:27:52.543Z,23.40
2017-12-03T17:30:23.612Z,23.40
2017-12-03T17:32:55.958Z,23.30
2017-12-03T17:35:24.505Z,23.30
2017-12-03T17:37:52.588Z,23.40
2017-12-03T17:40:20.811Z,23.40
2017-12-03T17:42:50.006Z,23.40
2017-12-03T17:45:21.909Z,23.60
2017-12-03T17:47:52.801Z,23.60
2017-12-03T19:03:26.309Z,23.50
2017-12-03T19:05:54.220Z,22.60
2017-12-03T19:08:22.844Z,23.20
2017-12-03T19:10:50.686Z,23.20
2017-12-03T19:13:18.608Z,23.30
2017-12-03T19:15:46.594Z,23.30
2017-12-03T19:18:14.754Z,23.20
2017-12-03T19:20:42.709Z,23.20
2017-12-03T19:23:10.520Z,23.10
2017-12-03T19:25:39.204Z,23.10
2017-12-03T19:28:07.026Z,23.10
2017-12-03T19:30:34.869Z,23.20
2017-12-03T19:33:04.714Z,23.10
2017-12-03T19:35:32.571Z,23.10
2017-12-03T19:38:00.464Z,23.10
2017-12-03T19:40:29.508Z,23.00
2017-12-03T19:42:58.044Z,23.10
2017-12-03T19:45:26.731Z,23.10
2017-12-03T19:47:55.367Z,23.10
2017-12-03T19:50:23.229Z,23.00
2017-12-03T19:52:52.294Z,23.10
2017-12-03T19:55:20.154Z,23.10
2017-12-03T19:57:49.539Z,23.00
2017-12-03T20:00:18.107Z,23.00
2017-12-03T20:02:45.929Z,23.00
2017-12-03T20:05:13.754Z,23.00
2017-12-03T20:07:42.341Z,23.10
2017-12-03T20:10:10.913Z,23.20
2017-12-03T20:12:39.551Z,23.30
2017-12-03T20:15:07.364Z,23.30
2017-12-03T20:17:39.419Z,23.20
2017-12-03T20:20:07.234Z,23.20
2017-12-03T20:22:35.007Z,23.20
2017-12-03T20:25:03.481Z,23.20
2017-12-03T20:27:32.168Z,23.10
2017-12-03T20:29:59.991Z,23.10
2017-12-03T20:32:27.891Z,23.20
2017-12-03T20:34:55.742Z,23.20
2017-12-03T20:37:24.317Z,23.10
2017-12-03T20:39:53.013Z,23.10
2017-12-03T20:42:20.902Z,23.00
2017-12-03T20:44:48.791Z,23.10
2017-12-03T20:47:16.739Z,23.00
2017-12-03T20:49:44.544Z,23.00
2017-12-03T20:52:13.896Z,23.00
2017-12-03T20:54:41.691Z,23.00
2017-12-03T20:57:10.461Z,23.10
2017-12-03T20:59:38.328Z,23.30
2017-12-03T21:02:06.224Z,23.30
2017-12-03T21:04:33.977Z,23.50
2017-12-03T21:07:01.757Z,23.50
2017-12-03T21:09:31.734Z,23.50
2017-12-03T21:11:59.651Z,23.40
2017-12-03T21:14:28.199Z,23.30
2017-12-03T21:16:56.077Z,23.20
2017-12-03T21:19:23.876Z,23.20
2017-12-03T21:21:51.746Z,23.20
2017-12-03T21:24:23.612Z,23.10
2017-12-03T21:26:51.395Z,23.10
2017-12-03T21:29:19.219Z,23.10
2017-12-03T21:31:47.772Z,23.00
2017-12-03T21:34:15.593Z,23.00
2017-12-03T21:36:43.312Z,23.00
2017-12-03T21:39:11.111Z,23.10
2017-12-03T21:41:38.928Z,22.90
2017-12-03T21:44:06.627Z,22.90
2017-12-03T21:46:34.504Z,23.00
2017-12-03T21:49:02.282Z,22.90
2017-12-03T21:51:30.058Z,22.80
2017-12-03T21:53:57.822Z,22.70
2017-12-03T21:56:25.711Z,22.80
2017-12-03T21:58:53.460Z,22.70
2017-12-03T22:01:21.236Z,22.70
2017-12-03T22:03:49.008Z,22.70
2017-12-03T22:06:17.335Z,22.80
2017-12-03T22:08:46.053Z,22.80
2017-12-03T22:11:13.784Z,22.60
2017-12-03T22:13:41.568Z,22.50
2017-12-03T22:16:09.323Z,22.50
2017-12-03T22:18:37.125Z,22.40
2017-12-03T22:21:04.928Z,22.30
2017-12-03T22:23:32.771Z,22.30
2017-12-03T22:26:01.268Z,22.10
2017-12-03T22:28:28.991Z,22.10
2017-12-03T22:30:56.744Z,22.10
2017-12-03T22:33:24.547Z,22.00
2017-12-03T22:35:53.046Z,22.00
2017-12-03T22:38:20.809Z,22.00
2017-12-03T22:40:49.641Z,21.90
2017-12-03T22:43:17.535Z,21.90
2017-12-03T22:45:46.110Z,21.70
2017-12-03T22:48:13.857Z,21.70
2017-12-03T22:50:41.701Z,21.70
2017-12-03T22:53:09.487Z,21.60
2017-12-03T22:55:37.303Z,21.50
2017-12-03T22:58:05.179Z,21.50
2017-12-03T23:00:34.924Z,21.50
2017-12-03T23:03:02.797Z,21.40
2017-12-03T23:05:31.378Z,21.30
2017-12-03T23:07:59.187Z,21.20
2017-12-03T23:10:26.898Z,21.30
2017-12-03T23:12:54.704Z,21.30
2017-12-03T23:15:22.529Z,21.20
2017-12-03T23:17:50.382Z,21.20
2017-12-03T23:20:18.181Z,21.10
2017-12-03T23:22:46.826Z,21.00
2017-12-03T23:25:14.620Z,20.90
2017-12-03T23:27:42.364Z,20.90
2017-12-03T23:30:10.238Z,20.90
2017-12-03T23:32:37.941Z,20.90
2017-12-03T23:35:05.677Z,21.00
2017-12-03T23:37:33.517Z,20.90
2017-12-03T23:40:01.324Z,20.80
2017-12-03T23:42:29.904Z,20.70
2017-12-03T23:44:58.500Z,20.60
2017-12-03T23:47:26.345Z,20.50
2017-12-03T23:49:54.980Z,20.60
2017-12-03T23:52:22.796Z,20.50
2017-12-03T23:54:51.342Z,20.60
2017-12-03T23:57:19.136Z,20.60
2017-12-03T23:59:47.737Z,20.50
